»·PEaware :: N444FG KCMA-KSNA

N444FG :: KCMA-KSNA

FLIGHT INFORMATION

Flight Status: Arrived
Operator: Privately registered:
United States
More flights under this callsign
Pilot: Bill F. (18685)
Aircraft: PIPER PA-28R-201 ARROW
(P28R)
More flights by this aircraft type
Origin: KCMA Camarillo
United States
Destination: KSNA John Wayne-Orange Co
United States
More flights between these airports :: More routes between these airports
Route: +
File this flight plan on PilotEdge
Remarks:
Altitude:
(Current/Filed)
4,500ft
Speed:
(Current/Filed)
0kts
Departed: 03-Dec-18 10:01 PM
Arrived: 03-Dec-18 10:37 PM
Distance/Time
Traveled:
69nm/0:36
Distance/Time
To Go:
Arrived

Flight Plot

Page will automatically refresh every two minutes.


Map Options




Map Legend


Flown Route
Filed Route
Departure Airport
Arrival Airport
Navaid (VOR, NDB)
Fix

Horizontal Profiles

Position Reports

Time Latitude Longitude Heading Altitude Ground
Speed
03-Dec-18 21:54 34.210904 -119.091527 69 75ft 0kts
03-Dec-18 21:55 34.210935 -119.091478 49 75ft 0kts
03-Dec-18 21:56 34.211058 -119.090426 90 75ft 22kts
03-Dec-18 21:57 34.211188 -119.084476 15 75ft 12kts
03-Dec-18 21:58 34.213039 -119.084480 359 75ft 0kts
03-Dec-18 21:59 34.213039 -119.084480 359 75ft 0kts
03-Dec-18 22:00 34.213780 -119.086098 266 75ft 42kts
03-Dec-18 22:01 34.202229 -119.103654 153 888ft 108kts
03-Dec-18 22:02 34.177285 -119.083163 139 2053ft 104kts
03-Dec-18 22:03 34.152213 -119.063291 158 3128ft 112kts
03-Dec-18 22:04 34.118430 -119.053384 154 3649ft 140kts
03-Dec-18 22:05 34.094855 -119.014489 107 3587ft 147kts
03-Dec-18 22:06 34.080306 -118.967715 106 3587ft 149kts
03-Dec-18 22:07 34.065697 -118.920913 106 3587ft 149kts
03-Dec-18 22:08 34.052835 -118.873322 102 3514ft 149kts
03-Dec-18 22:09 34.043832 -118.825187 93 3513ft 145kts
03-Dec-18 22:10 34.038918 -118.777056 89 3514ft 144kts
03-Dec-18 22:11 34.037219 -118.730372 91 3513ft 144kts
03-Dec-18 22:12 34.034286 -118.682315 91 3513ft 144kts
03-Dec-18 22:13 34.032851 -118.634279 85 3513ft 143kts
03-Dec-18 22:14 34.034217 -118.586416 85 3513ft 143kts
03-Dec-18 22:15 34.035319 -118.538448 85 3513ft 143kts
03-Dec-18 22:16 34.030526 -118.491338 107 3513ft 145kts
03-Dec-18 22:17 34.006488 -118.453596 138 3513ft 147kts
03-Dec-18 22:18 33.974111 -118.423843 141 3513ft 147kts
03-Dec-18 22:19 33.941857 -118.394095 141 3513ft 147kts
03-Dec-18 22:20 33.909629 -118.364007 141 3513ft 147kts
03-Dec-18 22:21 33.881357 -118.337470 141 3512ft 147kts
03-Dec-18 22:22 33.850774 -118.308630 141 3512ft 147kts
03-Dec-18 22:23 33.819473 -118.279015 138 3511ft 147kts
03-Dec-18 22:24 33.791080 -118.245114 132 3519ft 147kts
03-Dec-18 22:25 33.763481 -118.209005 130 3517ft 148kts
03-Dec-18 22:26 33.744477 -118.165398 112 3461ft 151kts
03-Dec-18 22:27 33.727314 -118.118776 112 3144ft 155kts
03-Dec-18 22:28 33.715541 -118.070437 91 2568ft 153kts
03-Dec-18 22:29 33.716889 -118.020391 85 2123ft 149kts
03-Dec-18 22:30 33.719306 -117.971818 80 1977ft 145kts
03-Dec-18 22:31 33.725767 -117.924395 79 1874ft 144kts
03-Dec-18 22:32 33.720693 -117.878440 124 1662ft 142kts
03-Dec-18 22:33 33.695473 -117.856450 203 917ft 131kts
03-Dec-18 22:34 33.676514 -117.877588 345 874ft 124kts
03-Dec-18 22:35 33.680187 -117.866135 205 91ft 69kts
03-Dec-18 22:36 33.669308 -117.871774 143 59ft 8kts
03-Dec-18 22:37 33.668655 -117.871389 218 59ft 10kts
03-Dec-18 22:38 33.667661 -117.870490 129 58ft 5kts
03-Dec-18 22:39 33.667670 -117.870725 151 58ft 0kts
03-Dec-18 22:40 33.667670 -117.870459 215 59ft 2kts
03-Dec-18 22:41 33.667669 -117.870461 221 59ft 0kts
03-Dec-18 22:42 33.667659 -117.870471 220 59ft 0kts
03-Dec-18 22:43 33.667659 -117.870471 220 59ft 0kts
03-Dec-18 22:44 33.667659 -117.870471 220 59ft 0kts

Navigation Log

Ident Type
Flight plan parsing failed, navigation log unavailable